Time;durP1;ratioP1;P1;durP2;ratioP2;P2;SDS_P1;SDS_P2;PMS_P1;PMS_P2;Temp;Humidity;BMP_temperature;BMP_pressure;BME280_temperature;BME280_humidity;BME280_pressure;Samples;Min_cycle;Max_cycle;Signal;HPM_P1;HPM_P2
2022/04/06 00:02:04;;;;;;;5.72;3.30;;;;;;;8.96;59.84;99337.72;4492830;31;33781;-82
2022/04/06 00:04:32;;;;;;;5.20;3.70;;;;;;;8.98;60.00;99335.03;4490418;31;33263;-82
2022/04/06 00:07:00;;;;;;;5.57;4.00;;;;;;;8.87;60.20;99343.38;4477327;31;34713;-82
2022/04/06 00:09:27;;;;;;;6.00;3.60;;;;;;;9.03;59.81;99342.72;4490063;31;32844;-82
2022/04/06 00:11:55;;;;;;;4.95;3.60;;;;;;;9.05;59.36;99346.13;4477962;31;34008;-81
2022/04/06 00:14:23;;;;;;;5.90;3.65;;;;;;;8.66;60.60;99349.59;4490003;31;33833;-82
2022/04/06 00:16:51;;;;;;;4.03;2.67;;;;;;;8.68;60.50;99348.59;4492942;31;34231;-82
2022/04/06 00:19:19;;;;;;;7.45;3.65;;;;;;;8.53;60.98;99351.88;4491155;31;32158;-82
2022/04/06 00:21:46;;;;;;;5.10;3.50;;;;;;;8.61;60.59;99354.22;4490105;31;33987;-81
2022/04/06 00:24:13;;;;;;;5.32;3.62;;;;;;;8.35;61.37;99355.25;4464881;32;33383;-82
2022/04/06 00:26:41;;;;;;;5.65;4.12;;;;;;;8.42;61.17;99359.38;4489624;31;33743;-82
2022/04/06 00:29:09;;;;;;;6.00;3.87;;;;;;;8.46;60.95;99361.84;4476795;31;32495;-82
2022/04/06 00:31:36;;;;;;;4.22;3.08;;;;;;;8.48;61.09;99360.91;4478828;31;32296;-82
2022/04/06 00:34:04;;;;;;;4.12;3.10;;;;;;;8.38;61.66;99365.69;4490598;31;33771;-82
2022/04/06 00:36:32;;;;;;;6.05;3.65;;;;;;;8.35;61.72;99366.63;4478189;31;33409;-82
2022/04/06 00:38:59;;;;;;;5.65;3.95;;;;;;;8.39;61.38;99362.13;4477455;31;32481;-82
2022/04/06 00:41:28;;;;;;;6.97;4.53;;;;;;;8.26;61.57;99360.91;4476170;31;33904;-82
2022/04/06 00:44:17;;;;;;;6.07;4.07;;;;;;;8.34;61.19;99364.94;4488705;31;34764;-82
2022/04/06 00:46:45;;;;;;;8.27;4.15;;;;;;;8.15;62.17;99370.09;4489864;31;33454;-82
2022/04/06 00:49:14;;;;;;;9.45;3.95;;;;;;;8.13;62.29;99371.94;4493616;31;32707;-82
2022/04/06 00:51:45;;;;;;;5.90;3.58;;;;;;;8.46;61.36;99369.72;4494285;31;34177;-82
2022/04/06 00:54:19;;;;;;;7.82;5.05;;;;;;;8.34;61.34;99370.19;4476236;31;32128;-82
2022/04/06 00:56:46;;;;;;;6.75;4.05;;;;;;;8.34;61.24;99364.06;4491683;31;34174;-81
2022/04/06 00:59:16;;;;;;;8.40;4.70;;;;;;;8.38;61.06;99356.03;4491049;31;33553;-82
2022/04/06 01:01:45;;;;;;;6.62;4.53;;;;;;;8.03;62.01;99370.59;4491260;31;33512;-82
2022/04/06 01:04:14;;;;;;;7.18;3.78;;;;;;;8.16;61.83;99377.06;4491347;31;34123;-82
2022/04/06 01:06:47;;;;;;;8.35;4.18;;;;;;;8.38;61.29;99370.97;4491477;31;33899;-82
2022/04/06 01:09:16;;;;;;;7.45;3.60;;;;;;;8.37;60.95;99372.75;4491832;31;33072;-82
2022/04/06 01:11:46;;;;;;;5.80;3.60;;;;;;;8.19;61.65;99369.03;4489745;31;33565;-82
2022/04/06 01:14:13;;;;;;;6.00;3.92;;;;;;;8.13;62.01;99366.69;4491314;31;34946;-82
2022/04/06 01:16:41;;;;;;;5.57;3.60;;;;;;;7.85;62.82;99377.44;4477537;31;32482;-83
2022/04/06 01:19:09;;;;;;;7.68;4.75;;;;;;;7.88;63.29;99379.97;4492860;31;34153;-82
2022/04/06 01:21:39;;;;;;;6.68;4.55;;;;;;;7.88;63.73;99374.69;4493855;31;33500;-82
2022/04/06 01:24:07;;;;;;;6.75;3.97;;;;;;;7.98;63.88;99384.84;4483282;31;33697;-82
2022/04/06 01:26:35;;;;;;;5.85;3.65;;;;;;;8.20;62.75;99378.66;4466174;31;31342;-82
2022/04/06 01:29:02;;;;;;;8.68;4.10;;;;;;;8.22;62.53;99381.22;4478780;31;32723;-82
2022/04/06 01:31:30;;;;;;;6.32;2.95;;;;;;;8.24;62.68;99376.75;4490761;31;34584;-82
2022/04/06 01:33:58;;;;;;;4.60;3.00;;;;;;;7.98;63.46;99376.97;4491585;31;34039;-85
2022/04/06 01:36:25;;;;;;;8.88;2.97;;;;;;;8.24;62.62;99379.38;4491325;31;33531;-85
2022/04/06 01:38:53;;;;;;;5.00;3.60;;;;;;;8.15;63.26;99374.50;4490333;31;32976;-85
2022/04/06 01:41:21;;;;;;;5.45;3.25;;;;;;;7.85;64.24;99372.19;4491956;31;33811;-84
2022/04/06 01:43:49;;;;;;;5.37;2.62;;;;;;;8.10;63.72;99364.16;4478892;31;34123;-84
2022/04/06 01:46:17;;;;;;;4.87;3.00;;;;;;;8.22;63.64;99368.09;4491079;31;34727;-84
2022/04/06 01:54:18;;;;;;;7.07;4.03;;;;;;;7.99;65.03;99370.78;4492427;31;34448;-83
2022/04/06 01:56:45;;;;;;;5.05;3.12;;;;;;;8.49;63.45;99363.47;4491221;31;34315;-82
2022/04/06 01:59:12;;;;;;;5.15;3.35;;;;;;;8.43;63.37;99369.84;4465172;31;32716;-82
2022/04/06 02:01:41;;;;;;;5.78;3.08;;;;;;;8.36;63.79;99368.41;4493597;31;33445;-83
2022/04/06 02:04:14;;;;;;;8.68;3.45;;;;;;;8.83;62.02;99357.62;4478153;31;34019;-82
2022/04/06 02:06:41;;;;;;;;;;;;;;;8.63;62.30;99365.50;4479045;31;33712;-82
2022/04/06 02:09:13;;;;;;;11.95;4.05;;;;;;;8.44;63.31;99354.91;4477887;31;34018;-82
2022/04/06 02:11:42;;;;;;;7.10;3.75;;;;;;;8.20;64.05;99356.75;4480210;31;32727;-81
2022/04/06 02:14:10;;;;;;;5.50;3.95;;;;;;;8.13;64.34;99361.41;4490434;31;34001;-81
2022/04/06 02:16:38;;;;;;;9.70;3.47;;;;;;;8.20;64.28;99362.88;4490511;31;33847;-81
2022/04/06 02:19:05;;;;;;;7.30;4.25;;;;;;;8.17;64.60;99351.63;4463932;31;32718;-81
2022/04/06 02:21:33;;;;;;;6.80;3.70;;;;;;;8.28;64.25;99344.16;4492559;31;33573;-82
2022/04/06 02:24:01;;;;;;;4.47;3.67;;;;;;;8.15;64.61;99351.69;4490551;31;34470;-82
2022/04/06 02:26:29;;;;;;;7.00;3.87;;;;;;;8.33;64.16;99350.06;4492705;31;34153;-81
2022/04/06 02:28:59;;;;;;;11.25;5.40;;;;;;;8.43;63.65;99353.19;4479715;31;31741;-82
2022/04/06 02:31:27;;;;;;;8.20;4.78;;;;;;;8.29;63.99;99356.38;4478309;31;32997;-81
2022/04/06 02:33:55;;;;;;;6.62;4.37;;;;;;;8.33;63.83;99360.59;4490124;31;33493;-82
2022/04/06 02:36:22;;;;;;;9.35;4.53;;;;;;;8.35;63.42;99357.88;4491548;31;34174;-81
2022/04/06 02:38:50;;;;;;;12.00;6.35;;;;;;;8.07;63.53;99364.31;4491670;31;33386;-81
2022/04/06 02:41:18;;;;;;;7.78;5.43;;;;;;;8.55;62.31;99357.97;4490411;31;33507;-81
2022/04/06 02:43:46;;;;;;;7.80;4.45;;;;;;;8.66;61.92;99355.72;4491209;31;33224;-81
2022/04/06 02:46:14;;;;;;;8.77;5.32;;;;;;;8.37;62.59;99366.63;4479187;31;33564;-82
2022/04/06 02:48:41;;;;;;;7.30;4.72;;;;;;;8.23;63.03;99363.66;4490979;31;33719;-82
2022/04/06 02:51:09;;;;;;;6.10;4.47;;;;;;;8.19;62.94;99355.03;4493918;31;33794;-82
2022/04/06 02:53:37;;;;;;;7.85;4.40;;;;;;;8.51;61.92;99350.25;4490481;31;33966;-81
2022/04/06 02:56:05;;;;;;;6.50;4.72;;;;;;;8.42;61.93;99357.62;4493336;31;33124;-81
2022/04/06 02:58:33;;;;;;;6.37;4.78;;;;;;;8.07;63.33;99355.53;4491829;31;33466;-80
2022/04/06 03:01:00;;;;;;;9.73;4.95;;;;;;;7.59;64.82;99356.56;4492964;31;33775;-80
2022/04/06 03:03:28;;;;;;;7.10;4.35;;;;;;;7.95;64.06;99363.00;4491340;31;33650;-80
2022/04/06 03:05:55;;;;;;;6.57;3.83;;;;;;;7.87;64.58;99364.22;4492012;31;33505;-80
2022/04/06 03:08:23;;;;;;;7.43;4.30;;;;;;;7.92;64.83;99367.53;4493782;31;33459;-81
2022/04/06 03:10:50;;;;;;;8.13;4.72;;;;;;;7.73;65.69;99374.41;4476697;31;32607;-81
2022/04/06 03:13:19;;;;;;;8.35;4.57;;;;;;;8.10;65.12;99366.78;4479373;31;32600;-80
2022/04/06 03:15:47;;;;;;;6.00;4.03;;;;;;;8.16;64.95;99376.19;4489902;31;33593;-80
2022/04/06 03:18:14;;;;;;;7.20;5.00;;;;;;;7.78;66.10;99381.19;4477878;31;32981;-81
2022/04/06 03:20:42;;;;;;;10.80;5.32;;;;;;;7.72;66.08;99372.72;4492148;31;34553;-81
2022/04/06 03:23:09;;;;;;;9.30;4.68;;;;;;;7.71;66.01;99374.50;4490543;31;34862;-81
2022/04/06 03:25:37;;;;;;;4.80;3.40;;;;;;;8.14;64.56;99372.78;4491464;31;33088;-81
2022/04/06 03:28:04;;;;;;;7.40;3.83;;;;;;;8.28;63.84;99369.59;4487906;31;34245;-80
2022/04/06 03:30:32;;;;;;;9.75;3.92;;;;;;;8.01;64.71;99372.41;4492161;31;33140;-81
2022/04/06 03:32:59;;;;;;;8.60;4.07;;;;;;;8.08;64.84;99375.69;4489275;31;33901;-80
2022/04/06 03:35:28;;;;;;;6.70;3.85;;;;;;;8.29;63.53;99364.25;4476409;31;33500;-81
2022/04/06 03:37:55;;;;;;;5.53;3.30;;;;;;;8.03;64.19;99367.13;4492110;31;33310;-82
2022/04/06 03:40:23;;;;;;;4.90;3.20;;;;;;;7.74;65.37;99377.00;4489491;31;33776;-82
2022/04/06 03:42:50;;;;;;;6.55;3.80;;;;;;;7.83;65.18;99376.66;4494994;31;33221;-81
2022/04/06 03:45:18;;;;;;;7.15;3.62;;;;;;;7.77;65.23;99379.50;4491463;31;34030;-82
2022/04/06 03:47:45;;;;;;;6.20;3.87;;;;;;;7.67;65.35;99368.50;4474927;31;33410;-82
2022/04/06 03:50:14;;;;;;;8.13;4.25;;;;;;;7.75;64.92;99369.97;4490734;31;33510;-84
2022/04/06 03:52:41;;;;;;;6.78;4.37;;;;;;;7.62;65.41;99377.47;4490487;31;33922;-83
2022/04/06 03:55:09;;;;;;;7.25;4.40;;;;;;;7.68;65.24;99379.84;4477432;31;33547;-81
2022/04/06 03:57:38;;;;;;;9.23;4.35;;;;;;;7.92;64.60;99378.03;4489952;31;34137;-82
2022/04/06 04:00:07;;;;;;;6.43;3.67;;;;;;;7.87;64.53;99386.09;4492532;31;33811;-82
2022/04/06 04:02:36;;;;;;;9.65;4.40;;;;;;;7.86;64.62;99381.78;4487967;31;34685;-81
2022/04/06 04:05:04;;;;;;;8.60;4.20;;;;;;;8.02;64.26;99383.78;4477412;31;33134;-81
2022/04/06 04:07:37;;;;;;;8.27;4.87;;;;;;;7.99;64.61;99378.66;4491772;31;32991;-82
2022/04/06 04:10:09;;;;;;;7.40;5.05;;;;;;;8.28;63.42;99373.06;4488965;31;33140;-82
2022/04/06 04:12:39;;;;;;;16.25;4.85;;;;;;;8.08;64.49;99386.19;4464758;31;33061;-82
2022/04/06 04:15:08;;;;;;;9.52;4.82;;;;;;;7.98;64.91;99387.47;4487687;31;32977;-82
2022/04/06 04:17:35;;;;;;;9.88;5.15;;;;;;;8.01;65.06;99387.34;4489168;31;34293;-83
2022/04/06 04:20:03;;;;;;;8.20;4.75;;;;;;;7.94;65.49;99386.75;4488079;31;33229;-83
2022/04/06 04:22:31;;;;;;;6.18;4.28;;;;;;;8.14;64.73;99378.03;4491857;31;33629;-83
2022/04/06 04:24:59;;;;;;;7.45;4.97;;;;;;;8.15;64.97;99371.88;4490012;31;34562;-82
2022/04/06 04:27:26;;;;;;;8.73;4.55;;;;;;;8.34;64.53;99375.44;4492397;31;34043;-83
2022/04/06 04:29:54;;;;;;;5.35;4.18;;;;;;;8.32;64.83;99371.19;4490234;31;33342;-82
2022/04/06 04:32:22;;;;;;;9.43;4.78;;;;;;;8.62;63.74;99379.59;4478341;31;33195;-82
2022/04/06 04:34:50;;;;;;;5.97;3.95;;;;;;;8.51;64.10;99381.84;4490666;31;33175;-82
2022/04/06 04:37:17;;;;;;;6.10;4.47;;;;;;;8.37;64.95;99380.62;4494227;31;33381;-82
2022/04/06 04:39:45;;;;;;;8.77;4.32;;;;;;;8.20;65.95;99397.06;4489201;31;33310;-82
2022/04/06 04:42:12;;;;;;;8.20;4.70;;;;;;;8.51;64.95;99395.00;4492204;31;31655;-80
2022/04/06 04:44:40;;;;;;;7.45;4.47;;;;;;;8.55;65.03;99393.94;4493549;31;33834;-79
2022/04/06 04:47:08;;;;;;;14.18;5.87;;;;;;;8.72;64.40;99394.94;4491020;31;33475;-79
2022/04/06 04:49:36;;;;;;;15.00;5.82;;;;;;;8.78;64.31;99393.81;4487227;31;34543;-80
2022/04/06 04:52:05;;;;;;;11.73;6.62;;;;;;;8.51;65.57;99398.47;4492676;31;34398;-80
2022/04/06 04:54:32;;;;;;;11.88;6.50;;;;;;;8.71;65.19;99395.00;4492325;31;33377;-79
2022/04/06 04:57:00;;;;;;;10.95;6.95;;;;;;;8.65;65.71;99400.53;4491230;31;32504;-79
2022/04/06 04:59:27;;;;;;;7.80;5.05;;;;;;;9.06;64.54;99390.84;4491851;31;33696;-79
2022/04/06 05:01:55;;;;;;;12.85;5.40;;;;;;;9.35;63.40;99386.91;4493272;31;34446;-79
2022/04/06 05:04:23;;;;;;;10.57;5.62;;;;;;;9.37;63.69;99395.59;4492397;31;34078;-79
2022/04/06 05:06:51;;;;;;;7.93;5.50;;;;;;;9.31;63.87;99402.94;4489827;31;33374;-80
2022/04/06 05:09:18;;;;;;;13.57;5.78;;;;;;;9.40;63.73;99406.00;4488196;31;33909;-81
2022/04/06 05:11:47;;;;;;;10.98;5.03;;;;;;;9.05;64.92;99404.06;4487882;31;34048;-80
2022/04/06 05:14:15;;;;;;;8.43;5.40;;;;;;;9.16;64.94;99401.81;4490677;31;33880;-80
2022/04/06 05:16:43;;;;;;;9.23;5.35;;;;;;;9.06;65.49;99405.78;4489986;31;33338;-80
2022/04/06 05:19:11;;;;;;;9.40;5.20;;;;;;;9.17;65.45;99403.56;4491345;31;34485;-80
2022/04/06 05:21:39;;;;;;;8.25;5.57;;;;;;;9.30;65.24;99402.06;4495146;31;34765;-80
2022/04/06 05:24:06;;;;;;;9.57;4.97;;;;;;;9.33;65.13;99404.56;4490077;31;33764;-80
2022/04/06 05:26:40;;;;;;;7.25;5.65;;;;;;;9.38;65.12;99402.56;4482843;31;33793;-80
2022/04/06 05:29:08;;;;;;;8.48;5.40;;;;;;;9.47;65.02;99407.44;4481332;31;33570;-82
2022/04/06 05:31:36;;;;;;;6.97;4.60;;;;;;;9.51;65.02;99404.66;4477986;31;33188;-80
2022/04/06 05:34:04;;;;;;;11.07;5.22;;;;;;;9.60;64.71;99401.59;4489064;31;33570;-81
2022/04/06 05:36:31;;;;;;;10.43;6.05;;;;;;;9.66;64.67;99409.22;4494845;31;33884;-81
2022/04/06 05:38:59;;;;;;;11.05;6.50;;;;;;;9.67;64.56;99410.94;4478046;32;33115;-81
2022/04/06 05:41:27;;;;;;;12.05;5.18;;;;;;;9.74;64.43;99417.66;4489339;31;34576;-80
2022/04/06 05:43:56;;;;;;;8.73;6.03;;;;;;;9.84;64.32;99425.97;4479770;31;33205;-80
2022/04/06 05:46:24;;;;;;;15.50;7.75;;;;;;;10.14;63.62;99426.31;4489278;31;34141;-81
2022/04/06 05:48:52;;;;;;;11.88;7.12;;;;;;;10.36;62.94;99424.38;4481834;31;32402;-80
2022/04/06 05:51:21;;;;;;;19.65;9.98;;;;;;;10.47;63.02;99419.41;4490795;31;33652;-81
2022/04/06 05:53:49;;;;;;;15.15;8.80;;;;;;;10.86;61.37;99428.91;4489648;31;33659;-80
2022/04/06 05:56:17;;;;;;;18.67;9.32;;;;;;;10.90;61.73;99430.47;4477182;31;32516;-81
2022/04/06 05:58:44;;;;;;;16.80;9.10;;;;;;;11.01;62.07;99433.44;4488877;31;33450;-81
2022/04/06 06:01:12;;;;;;;17.55;9.85;;;;;;;10.81;62.84;99425.66;4495453;31;34047;-81
2022/04/06 06:03:40;;;;;;;17.35;8.05;;;;;;;10.98;62.81;99443.31;4488874;31;34861;-81
2022/04/06 06:06:07;;;;;;;19.17;10.07;;;;;;;11.24;62.27;99428.72;4490563;31;32691;-81
2022/04/06 06:08:35;;;;;;;17.23;10.30;;;;;;;11.48;61.73;99430.06;4492027;31;33509;-81
2022/04/06 06:11:03;;;;;;;19.20;8.90;;;;;;;11.48;61.51;99431.88;4478997;31;33204;-81
2022/04/06 06:13:32;;;;;;;13.57;8.80;;;;;;;11.24;62.53;99428.72;4491098;31;34862;-81
2022/04/06 06:16:00;;;;;;;10.98;6.82;;;;;;;11.52;61.73;99428.97;4489326;31;33145;-80
2022/04/06 06:18:28;;;;;;;12.45;7.25;;;;;;;11.65;60.96;99430.97;4462569;31;33186;-81
2022/04/06 06:21:00;;;;;;;10.48;6.25;;;;;;;11.75;60.33;99429.53;4479359;31;34674;-81
2022/04/06 06:23:28;;;;;;;11.50;6.28;;;;;;;11.63;61.03;99431.06;4489262;31;33470;-81
2022/04/06 06:25:56;;;;;;;10.52;6.10;;;;;;;11.45;62.09;99437.34;4488487;31;32729;-80
2022/04/06 06:28:24;;;;;;;9.80;6.10;;;;;;;11.54;61.97;99426.28;4476678;31;34355;-81
2022/04/06 06:30:52;;;;;;;10.02;6.07;;;;;;;11.67;61.67;99426.44;4490169;31;33471;-81
2022/04/06 06:33:19;;;;;;;9.07;5.43;;;;;;;12.07;60.28;99432.25;4473251;31;33136;-81
2022/04/06 06:35:52;;;;;;;16.15;5.80;;;;;;;12.26;59.30;99435.56;4490307;31;33190;-81
2022/04/06 06:38:19;;;;;;;28.08;6.95;;;;;;;11.80;60.02;99427.50;4490674;31;34313;-80
2022/04/06 06:40:48;;;;;;;20.85;6.62;;;;;;;12.21;60.58;99433.19;4476319;31;34386;-81
2022/04/06 06:43:16;;;;;;;16.20;5.90;;;;;;;12.29;59.83;99424.78;4490058;31;35662;-81
2022/04/06 06:45:44;;;;;;;10.95;5.20;;;;;;;12.83;57.88;99422.56;4490848;31;34304;-81
2022/04/06 06:48:11;;;;;;;11.07;5.57;;;;;;;12.89;57.83;99430.13;4490947;31;34632;-81
2022/04/06 06:50:39;;;;;;;10.98;6.62;;;;;;;13.29;57.57;99418.06;4491210;31;33539;-80
2022/04/06 06:53:07;;;;;;;15.82;8.60;;;;;;;13.47;55.54;99418.69;4489276;31;34637;-80
2022/04/06 06:55:34;;;;;;;17.45;9.38;;;;;;;13.38;54.46;99424.56;4476357;31;32607;-81
2022/04/06 06:58:02;;;;;;;25.95;11.35;;;;;;;13.30;53.47;99425.06;4488870;31;33725;-80
2022/04/06 07:00:30;;;;;;;18.77;11.30;;;;;;;13.34;53.21;99412.47;4489306;31;33837;-80
2022/04/06 07:02:57;;;;;;;24.77;14.57;;;;;;;13.43;53.48;99406.56;4475186;31;34511;-80
2022/04/06 07:05:25;;;;;;;31.92;18.25;;;;;;;13.77;52.17;99409.81;4490345;31;33504;-80
2022/04/06 07:07:54;;;;;;;35.15;20.73;;;;;;;14.30;50.80;99409.00;4489614;31;34342;-80
2022/04/06 07:10:22;;;;;;;34.00;19.30;;;;;;;14.04;50.26;99408.03;4491980;31;33503;-80
2022/04/06 07:12:51;;;;;;;30.95;18.95;;;;;;;14.14;49.81;99405.63;4486608;31;34674;-80
2022/04/06 07:15:19;;;;;;;26.98;14.50;;;;;;;14.66;49.89;99406.69;4488826;31;33056;-80
2022/04/06 07:17:54;;;;;;;30.12;14.80;;;;;;;14.59;48.80;99406.28;4493385;31;33921;-80
2022/04/06 07:20:24;;;;;;;20.02;11.45;;;;;;;14.49;47.70;99413.16;4493459;31;33898;-80
2022/04/06 07:22:51;;;;;;;20.83;11.70;;;;;;;15.00;47.12;99406.16;4494499;31;33825;-80
2022/04/06 07:25:19;;;;;;;14.52;8.48;;;;;;;15.41;46.35;99399.75;4479059;31;31863;-81
2022/04/06 07:27:48;;;;;;;15.50;7.75;;;;;;;14.91;46.50;99411.22;4493076;31;33457;-80
2022/04/06 07:30:15;;;;;;;16.12;7.93;;;;;;;14.42;47.10;99409.16;4487251;31;34372;-81
2022/04/06 07:32:43;;;;;;;16.65;8.30;;;;;;;14.39;48.31;99406.72;4492660;31;34098;-80
2022/04/06 07:35:10;;;;;;;12.88;7.25;;;;;;;14.71;47.73;99407.25;4491942;31;33152;-80
2022/04/06 07:37:42;;;;;;;12.02;6.82;;;;;;;14.56;47.53;99411.78;4476504;31;34525;-80
2022/04/06 07:40:12;;;;;;;18.83;7.97;;;;;;;15.00;47.17;99413.25;4487098;31;33551;-80
2022/04/06 07:42:40;;;;;;;14.73;7.60;;;;;;;15.09;46.58;99415.28;4491379;31;33821;-80
2022/04/06 07:45:09;;;;;;;9.52;6.20;;;;;;;15.03;46.73;99421.87;4475663;31;32625;-80
2022/04/06 07:47:40;;;;;;;11.55;5.95;;;;;;;15.08;46.79;99414.44;4481261;31;35419;-80
2022/04/06 07:50:08;;;;;;;8.05;4.95;;;;;;;14.97;46.66;99419.63;4493093;31;33897;-80
2022/04/06 07:52:36;;;;;;;12.40;5.93;;;;;;;15.28;46.53;99409.56;4492435;31;34528;-80
2022/04/06 07:55:06;;;;;;;12.25;6.47;;;;;;;15.38;46.23;99415.94;4488714;31;33462;-80
2022/04/06 07:57:35;;;;;;;8.77;6.57;;;;;;;15.33;46.43;99418.06;4476561;31;34458;-80
2022/04/06 08:00:06;;;;;;;13.25;7.80;;;;;;;15.55;45.63;99412.94;4495229;31;33934;-80
2022/04/06 08:02:34;;;;;;;11.32;6.50;;;;;;;15.22;46.10;99420.63;4492377;31;32317;-81
2022/04/06 08:05:03;;;;;;;13.52;8.13;;;;;;;15.58;46.31;99423.38;4477605;31;31898;-80
2022/04/06 08:07:31;;;;;;;12.25;7.68;;;;;;;15.11;47.42;99418.69;4493074;31;33869;-80
2022/04/06 08:09:59;;;;;;;14.57;7.57;;;;;;;15.40;47.79;99416.69;4479247;31;34294;-80
2022/04/06 08:12:27;;;;;;;14.38;8.32;;;;;;;15.44;47.18;99418.19;4490699;31;33004;-80
2022/04/06 08:14:54;;;;;;;10.57;7.37;;;;;;;15.64;47.14;99415.97;4479329;31;33085;-80
2022/04/06 08:17:23;;;;;;;14.48;7.65;;;;;;;15.98;46.02;99415.25;4490858;31;34319;-80
2022/04/06 08:19:51;;;;;;;12.18;7.87;;;;;;;16.05;46.32;99416.53;4489953;31;34829;-80
2022/04/06 08:22:18;;;;;;;12.55;8.02;;;;;;;16.31;46.20;99416.41;4490704;31;34079;-80
2022/04/06 08:24:46;;;;;;;12.48;7.57;;;;;;;16.22;45.88;99419.75;4478119;31;33200;-80
2022/04/06 08:27:14;;;;;;;12.95;7.70;;;;;;;16.50;45.91;99410.59;4494082;31;33606;-80
2022/04/06 08:29:41;;;;;;;14.60;7.87;;;;;;;16.42;45.88;99403.16;4493356;31;33603;-81
2022/04/06 08:32:09;;;;;;;14.13;7.87;;;;;;;16.80;44.97;99418.12;4491784;31;33514;-80
2022/04/06 08:34:36;;;;;;;18.70;8.88;;;;;;;16.77;45.03;99419.22;4490667;31;32665;-80
2022/04/06 08:37:04;;;;;;;11.35;7.10;;;;;;;17.18;44.41;99404.53;4491527;31;33522;-80
2022/04/06 08:39:32;;;;;;;14.55;7.28;;;;;;;17.36;44.25;99412.94;4492797;31;33849;-80
2022/04/06 08:42:00;;;;;;;11.90;6.57;;;;;;;17.71;42.89;99399.50;4494513;31;33142;-80
2022/04/06 08:44:40;;;;;;;11.90;7.57;;;;;;;17.61;42.53;99404.72;4491517;31;33527;-80
2022/04/06 08:47:08;;;;;;;13.95;6.40;;;;;;;17.09;45.04;99414.13;4494029;31;33479;-80
2022/04/06 08:49:36;;;;;;;10.48;6.55;;;;;;;17.41;43.89;99411.59;4472535;31;34094;-80
2022/04/06 08:52:04;;;;;;;10.68;7.30;;;;;;;17.54;42.92;99416.84;4478583;31;34682;-80
2022/04/06 08:54:31;;;;;;;13.05;6.47;;;;;;;17.45;43.36;99409.56;4492273;31;33355;-80
2022/04/06 08:56:59;;;;;;;9.38;5.78;;;;;;;18.02;43.39;99408.59;4489814;31;34627;-80
2022/04/06 08:59:26;;;;;;;13.98;5.95;;;;;;;18.35;41.65;99399.66;4489959;31;33409;-80
2022/04/06 09:01:56;;;;;;;8.30;6.25;;;;;;;18.28;42.54;99397.63;4477877;31;33491;-80
2022/04/06 09:04:24;;;;;;;14.25;6.47;;;;;;;18.09;42.14;99393.78;4482994;31;32515;-80
2022/04/06 09:07:09;;;;;;;10.02;6.10;;;;;;;18.73;42.54;99387.62;4471203;31;33533;-82
2022/04/06 09:09:37;;;;;;;13.93;7.22;;;;;;;18.59;41.23;99399.44;4479686;31;34598;-80
2022/04/06 09:12:07;;;;;;;9.45;5.80;;;;;;;19.01;40.45;99391.50;4492093;31;34711;-80
2022/04/06 09:14:35;;;;;;;7.40;5.30;;;;;;;19.16;40.52;99383.97;4492061;31;33126;-80
2022/04/06 09:17:04;;;;;;;8.02;5.45;;;;;;;19.75;39.10;99379.78;4465422;31;32054;-81
2022/04/06 09:19:36;;;;;;;6.57;5.20;;;;;;;19.44;39.07;99382.44;4479767;31;34166;-81
2022/04/06 09:22:06;;;;;;;8.70;5.18;;;;;;;18.91;39.13;99391.44;4494570;31;33676;-80
2022/04/06 09:24:34;;;;;;;8.63;5.22;;;;;;;19.04;40.50;99375.19;4479442;31;32730;-80
2022/04/06 09:27:03;;;;;;;7.30;4.60;;;;;;;19.51;38.93;99378.22;4489964;31;33396;-80
2022/04/06 09:29:34;;;;;;;7.57;5.95;;;;;;;19.67;37.03;99378.63;4493237;31;33736;-80
2022/04/06 09:32:06;;;;;;;8.70;4.80;;;;;;;19.02;38.50;99377.13;4479987;31;34553;-80
2022/04/06 09:34:53;;;;;;;8.40;5.50;;;;;;;19.15;37.60;99369.75;4479313;31;32764;-80
2022/04/06 09:37:26;;;;;;;7.25;4.72;;;;;;;19.56;38.79;99368.00;4491054;31;33924;-81
2022/04/06 09:39:58;;;;;;;7.05;5.07;;;;;;;19.35;39.98;99361.81;4491854;31;34001;-80
2022/04/06 09:42:27;;;;;;;7.35;5.25;;;;;;;19.54;39.71;99359.22;4491322;31;34154;-81
2022/04/06 09:47:58;;;;;;;7.62;4.43;;;;;;;19.80;37.63;99356.97;4479419;31;33586;-80
2022/04/06 09:50:29;;;;;;;9.32;5.37;;;;;;;20.87;37.74;99343.66;4489591;31;33654;-80
2022/04/06 09:52:57;;;;;;;6.03;4.35;;;;;;;20.90;36.24;99344.22;4488634;31;32684;-80
2022/04/06 09:55:25;;;;;;;6.82;4.57;;;;;;;20.70;35.63;99337.22;4490779;31;33549;-80
2022/04/06 09:57:58;;;;;;;9.23;5.30;;;;;;;20.80;36.52;99329.16;4490844;31;33650;-80
2022/04/06 10:00:30;;;;;;;8.55;4.90;;;;;;;20.42;35.16;99336.19;4477460;31;35245;-80
2022/04/06 10:03:06;;;;;;;7.85;4.87;;;;;;;20.62;34.89;99323.66;4478951;31;34826;-81
2022/04/06 10:05:35;;;;;;;8.48;5.72;;;;;;;20.58;36.32;99336.50;4474972;31;32854;-80
2022/04/06 10:08:07;;;;;;;8.35;5.30;;;;;;;20.90;35.74;99324.59;4487996;31;33469;-80
2022/04/06 10:10:40;;;;;;;8.93;5.20;;;;;;;20.91;35.11;99320.91;4487443;31;33539;-80
2022/04/06 10:13:08;;;;;;;5.80;4.45;;;;;;;21.23;36.08;99317.88;4478526;31;34026;-81
2022/04/06 10:15:57;;;;;;;7.95;4.25;;;;;;;21.22;35.53;99314.34;4492386;31;33430;-80
2022/04/06 10:18:31;;;;;;;7.10;4.47;;;;;;;20.94;35.34;99309.91;4492418;31;33140;-81
2022/04/06 10:21:11;;;;;;;8.85;4.32;;;;;;;20.33;33.82;99310.22;4488916;31;34778;-80
2022/04/06 10:23:56;;;;;;;6.30;4.57;;;;;;;20.88;35.12;99310.47;4490113;31;34180;-80
2022/04/06 10:26:43;;;;;;;7.55;5.03;;;;;;;20.79;32.56;99306.81;4488672;31;34150;-81
2022/04/06 10:29:11;;;;;;;8.85;5.40;;;;;;;20.40;33.91;99311.34;4490168;31;33928;-80
2022/04/06 10:31:38;;;;;;;8.65;5.37;;;;;;;19.99;34.53;99302.59;4492566;31;33882;-80
2022/04/06 10:34:24;;;;;;;10.13;4.82;;;;;;;20.26;34.25;99293.84;4479613;31;33823;-80
2022/04/06 10:37:12;;;;;;;6.10;3.83;;;;;;;20.78;33.63;99296.22;4461850;31;33966;-80
2022/04/06 10:39:51;;;;;;;6.93;4.60;;;;;;;20.48;34.22;99302.63;4488328;31;33508;-80
2022/04/06 10:42:29;;;;;;;6.43;3.90;;;;;;;20.30;35.17;99294.41;4475405;31;32915;-80
2022/04/06 10:44:56;;;;;;;5.72;4.05;;;;;;;20.43;33.31;99292.28;4491268;31;33495;-80
2022/04/06 10:47:24;;;;;;;6.15;4.25;;;;;;;20.78;33.56;99290.88;4468547;31;33808;-81
2022/04/06 10:50:12;;;;;;;11.05;4.85;;;;;;;20.80;33.61;99291.59;4491782;31;33448;-80
2022/04/06 10:52:42;;;;;;;12.73;5.40;;;;;;;20.48;34.35;99292.75;4482618;31;32582;-80
2022/04/06 10:55:14;;;;;;;9.20;5.90;;;;;;;20.44;33.73;99275.22;4490686;31;34153;-81
2022/04/06 10:58:02;;;;;;;8.57;5.85;;;;;;;20.25;33.71;99280.59;4487583;31;34020;-80
2022/04/06 11:00:31;;;;;;;13.55;6.70;;;;;;;20.38;34.23;99281.16;4488100;31;33096;-80
2022/04/06 11:03:17;;;;;;;9.27;6.40;;;;;;;20.46;35.78;99262.50;4480191;31;32565;-80
2022/04/06 11:05:49;;;;;;;11.80;6.12;;;;;;;21.11;36.96;99260.81;4474774;31;33621;-80
2022/04/06 11:11:39;;;;;;;11.90;8.13;;;;;;;20.45;35.12;99258.12;4488439;31;33006;-80
2022/04/06 11:14:07;;;;;;;11.15;7.72;;;;;;;21.00;35.06;99252.13;4490533;31;33977;-80
2022/04/06 11:16:42;;;;;;;10.10;7.65;;;;;;;21.85;37.27;99240.25;4487174;31;32639;-80
2022/04/06 11:19:11;;;;;;;10.90;8.57;;;;;;;21.99;33.12;99237.03;4492314;31;33035;-80
2022/04/06 11:21:46;;;;;;;14.43;8.27;;;;;;;20.97;34.61;99242.50;4489066;31;34057;-80
2022/04/06 11:24:22;;;;;;;10.77;7.43;;;;;;;20.74;34.90;99235.78;4491628;31;34507;-80
2022/04/06 11:26:50;;;;;;;11.23;8.05;;;;;;;21.32;34.39;99230.25;4486868;31;33336;-81
2022/04/06 11:29:19;;;;;;;11.45;7.10;;;;;;;21.41;33.78;99229.31;4487549;31;33400;-81
2022/04/06 11:32:00;;;;;;;14.30;8.45;;;;;;;21.29;33.78;99227.81;4493354;31;33947;-81
2022/04/06 11:34:39;;;;;;;12.10;8.27;;;;;;;20.94;34.44;99221.34;4490282;31;33369;-81
2022/04/06 11:37:08;;;;;;;16.48;8.65;;;;;;;21.27;34.84;99217.25;4490165;31;33453;-81
2022/04/06 11:39:36;;;;;;;14.77;9.45;;;;;;;21.07;34.91;99213.78;4474355;31;34081;-80
2022/04/06 11:42:04;;;;;;;14.38;8.88;;;;;;;21.51;34.85;99200.59;4492177;31;33812;-81
2022/04/06 11:44:33;;;;;;;14.57;9.23;;;;;;;21.56;35.18;99198.28;4489693;31;34975;-81
2022/04/06 11:47:01;;;;;;;14.90;8.85;;;;;;;21.52;33.53;99204.12;4479350;31;34885;-81
2022/04/06 11:49:32;;;;;;;12.75;7.80;;;;;;;21.70;33.25;99186.19;4490273;31;33757;-82
2022/04/06 11:51:59;;;;;;;16.30;8.90;;;;;;;21.79;32.76;99193.34;4479646;31;32342;-82
2022/04/06 11:54:28;;;;;;;11.00;7.70;;;;;;;21.67;33.96;99187.31;4487796;31;34096;-81
2022/04/06 11:56:57;;;;;;;13.45;7.37;;;;;;;22.95;31.47;99170.66;4488141;31;34456;-81